Palma De Mallorca, Spain

8:11 PM CET on February 08, 2016 (GMT +0100)
Es Pil.lari | | Change Station
CLOSE
Current Station
Personal Weather Station
Location: Es Pil.larí, ILLES BALEARS
Elevation: 3 ft
Nearby Weather Stations

Elev 3 ft 39.53 °N, 2.74 °E | Updated 2 seconds ago

Partly Cloudy
Partly Cloudy
57.8 °F
Feels Like 57.8 °F
N
4.6
Wind Variable Wind from SW
Gusts 4.6 mph

Today
High -- | Low -- °F
--% Chance of Precip.
Yesterday
High -- | Low -- °F
Precip. -- in
Pressure 30.24 in
Visibility 6.2 miles
Clouds Few 2000 ft
Dew Point 52 °F
Humidity 82%
Rainfall 0.00 in
Snow Depth Not available.
7:50 AM 6:16 PM
New Moon, 0% visible
METAR LEPA 081900Z 24004KT 9999 FEW020 13/10 Q1024 NOSIG
Pressure 30.24 in
Visibility 6.2 miles
Clouds Few 2000 ft
Dew Point 52 °F
Humidity 82%
Rainfall 0.00 in
Snow Depth Not available.
7:50 AM 6:16 PM
New Moon, 0% visible
METAR LEPA 081900Z 24004KT 9999 FEW020 13/10 Q1024 NOSIG

10-Day Weather Forecast

Almanac

Astronomy

Feb. 08, 2016 Rise Set
Actual Time
Civil Twilight
Nautical Twilight
Astronomical Twilight
Moon
Length of Visible Light
Length of Day
Tomorrow will be .
, % of the Moon is Illuminated

Today's Extremes

Country Highs Country Lows

Community

WunderPhotos

Upload Photos

1,891,497 photos uploaded!

WunderBlog® & News

Nearby

Air Quality

  Air Quality AQ Index Pollutant
Not available.

Snow Depth

Station Depth Elevation

Earthquake Activity

City Distance Mag. Time & Date
Minimum magnitude displayed is 2.5.

Coastal Water Temperatures

Place Temperature

Stations

Nearby Weather Stations

Station Location Temp. Windchill Dew Point Humidity Wind Precip. Elev Updated Type